Elsenham, United Kingdom
Current Conditions -  °F | °C
As of 9:20 AM on Friday 31 Oct 2014 (Local Time) from EGSS Reporting Station
Clear Clear  
Wind Chill: 59°   Ceiling: Unl
Heat Index: 59°   Visibility: 4mi
Dew Point: 57°   Wind: 8mph
Humidity: 94%   Direction: 160°SSE
Pressure: 30.06"   Gusts: NA
Location:  51.91°N, 0.23°E
Report Text: EGSS 310920Z 16007KT 6000 NSC 15/14 Q1018
Loading
Personal Weather Stations






























Interactive Weather Map
Tropical Storm Tracking
New forecast layout! Learn more

10-Day Weather Forecast

Advertisements
Track Severe Weather on mobile